sensor_id;sensor_type;location;lat;lon;timestamp;pressure;altitude;pressure_sealevel;temperature;humidity
43770;BME280;6597;52.218;9.882;2023-02-17T00:00:58;101075.50;;;7.82;100.00
43770;BME280;6597;52.218;9.882;2023-02-17T00:03:25;101055.41;;;7.84;100.00
43770;BME280;6597;52.218;9.882;2023-02-17T00:05:53;101048.44;;;7.85;100.00
43770;BME280;6597;52.218;9.882;2023-02-17T00:08:19;101043.16;;;7.88;100.00
43770;BME280;6597;52.218;9.882;2023-02-17T00:10:56;101047.47;;;7.89;100.00
43770;BME280;6597;52.218;9.882;2023-02-17T00:13:23;101030.09;;;7.86;100.00
43770;BME280;6597;52.218;9.882;2023-02-17T00:15:49;101024.91;;;7.85;100.00
43770;BME280;6597;52.218;9.882;2023-02-17T00:18:16;101025.81;;;7.84;100.00
43770;BME280;6597;52.218;9.882;2023-02-17T00:20:42;101026.59;;;7.87;100.00
43770;BME280;6597;52.218;9.882;2023-02-17T00:23:10;101030.94;;;7.88;100.00
43770;BME280;6597;52.218;9.882;2023-02-17T00:25:38;101027.47;;;7.88;100.00
43770;BME280;6597;52.218;9.882;2023-02-17T00:28:04;101028.25;;;7.91;100.00
43770;BME280;6597;52.218;9.882;2023-02-17T00:30:31;101018.53;;;7.98;100.00
43770;BME280;6597;52.218;9.882;2023-02-17T00:32:59;101015.13;;;7.94;100.00
43770;BME280;6597;52.218;9.882;2023-02-17T00:35:26;101007.25;;;7.96;100.00
43770;BME280;6597;52.218;9.882;2023-02-17T00:37:52;101022.06;;;7.95;100.00
43770;BME280;6597;52.218;9.882;2023-02-17T00:40:20;100998.53;;;7.97;100.00
43770;BME280;6597;52.218;9.882;2023-02-17T00:42:47;101006.38;;;7.95;100.00
43770;BME280;6597;52.218;9.882;2023-02-17T00:45:14;101008.13;;;7.96;100.00
43770;BME280;6597;52.218;9.882;2023-02-17T00:47:40;101006.31;;;7.98;100.00
43770;BME280;6597;52.218;9.882;2023-02-17T00:50:08;101003.78;;;7.95;100.00
43770;BME280;6597;52.218;9.882;2023-02-17T00:52:35;101008.22;;;7.92;100.00
43770;BME280;6597;52.218;9.882;2023-02-17T00:55:02;101009.97;;;7.91;100.00
43770;BME280;6597;52.218;9.882;2023-02-17T00:57:30;100992.50;;;7.93;100.00
43770;BME280;6597;52.218;9.882;2023-02-17T00:59:57;101006.59;;;7.86;100.00
43770;BME280;6597;52.218;9.882;2023-02-17T01:02:25;101002.34;;;7.80;100.00
43770;BME280;6597;52.218;9.882;2023-02-17T01:04:52;101008.44;;;7.79;100.00
43770;BME280;6597;52.218;9.882;2023-02-17T01:07:19;101011.00;;;7.83;100.00
43770;BME280;6597;52.218;9.882;2023-02-17T01:09:45;101005.75;;;7.84;100.00
43770;BME280;6597;52.218;9.882;2023-02-17T01:12:12;101004.88;;;7.85;100.00
43770;BME280;6597;52.218;9.882;2023-02-17T01:14:40;101005.72;;;7.86;100.00
43770;BME280;6597;52.218;9.882;2023-02-17T01:17:06;101006.53;;;7.89;100.00
43770;BME280;6597;52.218;9.882;2023-02-17T01:19:33;101002.97;;;7.92;100.00
43770;BME280;6597;52.218;9.882;2023-02-17T01:21:59;101006.44;;;7.94;100.00
43770;BME280;6597;52.218;9.882;2023-02-17T01:24:26;100999.41;;;7.96;100.00
43770;BME280;6597;52.218;9.882;2023-02-17T01:26:52;101000.28;;;7.96;100.00
43770;BME280;6597;52.218;9.882;2023-02-17T01:29:19;100996.72;;;7.99;100.00
43770;BME280;6597;52.218;9.882;2023-02-17T01:31:47;101007.16;;;8.00;100.00
43770;BME280;6597;52.218;9.882;2023-02-17T01:34:13;100991.50;;;7.99;100.00
43770;BME280;6597;52.218;9.882;2023-02-17T01:36:40;100994.03;;;8.03;100.00
43770;BME280;6597;52.218;9.882;2023-02-17T01:39:11;100993.13;;;8.04;100.00
43770;BME280;6597;52.218;9.882;2023-02-17T01:41:38;100974.81;;;8.04;100.00
43770;BME280;6597;52.218;9.882;2023-02-17T01:44:12;100979.16;;;8.05;100.00
43770;BME280;6597;52.218;9.882;2023-02-17T01:46:41;100976.41;;;8.11;100.00
43770;BME280;6597;52.218;9.882;2023-02-17T01:49:30;100963.34;;;8.11;100.00
43770;BME280;6597;52.218;9.882;2023-02-17T01:52:03;100964.16;;;8.15;100.00
43770;BME280;6597;52.218;9.882;2023-02-17T01:54:35;100957.97;;;8.19;100.00
43770;BME280;6597;52.218;9.882;2023-02-17T01:57:07;100947.50;;;8.19;100.00
43770;BME280;6597;52.218;9.882;2023-02-17T01:59:35;100936.19;;;8.19;100.00
43770;BME280;6597;52.218;9.882;2023-02-17T02:02:03;100932.59;;;8.23;100.00
43770;BME280;6597;52.218;9.882;2023-02-17T02:04:35;100921.22;;;8.25;100.00
43770;BME280;6597;52.218;9.882;2023-02-17T02:07:05;100922.88;;;8.28;100.00
43770;BME280;6597;52.218;9.882;2023-02-17T02:09:37;100922.88;;;8.28;100.00
43770;BME280;6597;52.218;9.882;2023-02-17T02:12:16;100918.41;;;8.33;100.00
43770;BME280;6597;52.218;9.882;2023-02-17T02:14:44;100923.59;;;8.36;100.00
43770;BME280;6597;52.218;9.882;2023-02-17T02:17:14;100924.38;;;8.39;100.00
43770;BME280;6597;52.218;9.882;2023-02-17T02:20:06;100913.81;;;8.44;100.00
43770;BME280;6597;52.218;9.882;2023-02-17T02:22:58;100911.19;;;8.46;100.00
43770;BME280;6597;52.218;9.882;2023-02-17T02:25:45;100921.53;;;8.50;100.00
43770;BME280;6597;52.218;9.882;2023-02-17T02:28:27;100910.19;;;8.51;100.00
43770;BME280;6597;52.218;9.882;2023-02-17T02:31:07;100911.78;;;8.57;100.00
43770;BME280;6597;52.218;9.882;2023-02-17T02:33:45;100902.06;;;8.62;100.00
43770;BME280;6597;52.218;9.882;2023-02-17T02:36:18;100918.66;;;8.61;100.00
43770;BME280;6597;52.218;9.882;2023-02-17T02:38:52;100900.22;;;8.65;100.00
43770;BME280;6597;52.218;9.882;2023-02-17T02:41:21;100906.19;;;8.70;100.00
43770;BME280;6597;52.218;9.882;2023-02-17T02:43:51;100907.94;;;8.70;100.00
43770;BME280;6597;52.218;9.882;2023-02-17T02:46:17;100902.84;;;8.65;100.00
43770;BME280;6597;52.218;9.882;2023-02-17T02:48:46;100907.13;;;8.68;100.00
43770;BME280;6597;52.218;9.882;2023-02-17T02:51:28;100895.84;;;8.66;100.00
43770;BME280;6597;52.218;9.882;2023-02-17T02:54:18;100889.63;;;8.70;100.00
43770;BME280;6597;52.218;9.882;2023-02-17T02:57:17;100885.28;;;8.69;100.00
43770;BME280;6597;52.218;9.882;2023-02-17T02:59:53;100887.78;;;8.73;100.00
43770;BME280;6597;52.218;9.882;2023-02-17T03:02:28;100873.03;;;8.71;100.00
43770;BME280;6597;52.218;9.882;2023-02-17T03:05:01;100867.78;;;8.71;100.00
43770;BME280;6597;52.218;9.882;2023-02-17T03:07:32;100846.16;;;8.64;100.00
43770;BME280;6597;52.218;9.882;2023-02-17T03:10:00;100854.59;;;8.76;100.00
43770;BME280;6597;52.218;9.882;2023-02-17T03:12:27;100854.53;;;8.79;100.00
43770;BME280;6597;52.218;9.882;2023-02-17T03:14:57;100861.44;;;8.81;100.00
43770;BME280;6597;52.218;9.882;2023-02-17T03:17:25;100862.25;;;8.83;100.00
43770;BME280;6597;52.218;9.882;2023-02-17T03:19:51;100858.69;;;8.86;100.00
43770;BME280;6597;52.218;9.882;2023-02-17T03:22:21;100860.28;;;8.91;100.00
43770;BME280;6597;52.218;9.882;2023-02-17T03:24:49;100870.72;;;8.93;100.00
43770;BME280;6597;52.218;9.882;2023-02-17T03:27:16;100868.03;;;8.96;100.00
43770;BME280;6597;52.218;9.882;2023-02-17T03:29:42;100848.78;;;8.97;100.00
43770;BME280;6597;52.218;9.882;2023-02-17T03:32:09;100851.28;;;9.01;100.00
43770;BME280;6597;52.218;9.882;2023-02-17T03:34:36;100854.63;;;9.07;100.00
43770;BME280;6597;52.218;9.882;2023-02-17T03:37:03;100852.06;;;9.05;100.00
43770;BME280;6597;52.218;9.882;2023-02-17T03:39:31;100865.97;;;9.07;100.00
43770;BME280;6597;52.218;9.882;2023-02-17T03:41:57;100864.19;;;9.08;100.00
43770;BME280;6597;52.218;9.882;2023-02-17T03:44:24;100856.34;;;9.08;100.00
43770;BME280;6597;52.218;9.882;2023-02-17T03:46:50;100858.06;;;9.09;100.00
43770;BME280;6597;52.218;9.882;2023-02-17T03:49:17;100861.53;;;9.11;100.00
43770;BME280;6597;52.218;9.882;2023-02-17T03:51:43;100864.19;;;9.08;100.00
43770;BME280;6597;52.218;9.882;2023-02-17T03:54:10;100854.66;;;9.05;100.00
43770;BME280;6597;52.218;9.882;2023-02-17T03:56:38;100849.38;;;9.07;100.00
43770;BME280;6597;52.218;9.882;2023-02-17T03:59:04;100838.09;;;9.04;100.00
43770;BME280;6597;52.218;9.882;2023-02-17T04:01:31;100827.59;;;9.06;100.00
43770;BME280;6597;52.218;9.882;2023-02-17T04:03:57;100829.19;;;9.12;100.00
43770;BME280;6597;52.218;9.882;2023-02-17T04:06:24;100828.34;;;9.10;100.00
43770;BME280;6597;52.218;9.882;2023-02-17T04:08:51;100830.00;;;9.14;100.00
43770;BME280;6597;52.218;9.882;2023-02-17T04:11:17;100821.97;;;9.20;100.00
43770;BME280;6597;52.218;9.882;2023-02-17T04:13:45;100830.66;;;9.22;100.00
43770;BME280;6597;52.218;9.882;2023-02-17T04:16:12;100824.47;;;9.24;100.00
43770;BME280;6597;52.218;9.882;2023-02-17T04:18:38;100826.13;;;9.27;100.00
43770;BME280;6597;52.218;9.882;2023-02-17T04:21:05;100826.94;;;9.29;100.00
43770;BME280;6597;52.218;9.882;2023-02-17T04:23:33;100807.06;;;9.22;100.00
43770;BME280;6597;52.218;9.882;2023-02-17T04:25:59;100814.66;;;9.31;100.00
43770;BME280;6597;52.218;9.882;2023-02-17T04:28:26;100808.53;;;9.32;100.00
43770;BME280;6597;52.218;9.882;2023-02-17T04:30:57;100816.28;;;9.35;100.00
43770;BME280;6597;52.218;9.882;2023-02-17T04:33:24;100814.56;;;9.34;100.00
43770;BME280;6597;52.218;9.882;2023-02-17T04:35:50;100816.25;;;9.36;100.00
43770;BME280;6597;52.218;9.882;2023-02-17T04:38:18;100830.97;;;9.41;100.00
43770;BME280;6597;52.218;9.882;2023-02-17T04:40:44;100832.72;;;9.40;100.00
43770;BME280;6597;52.218;9.882;2023-02-17T04:43:11;100834.50;;;9.40;100.00
43770;BME280;6597;52.218;9.882;2023-02-17T04:45:37;100828.25;;;9.45;100.00
43770;BME280;6597;52.218;9.882;2023-02-17T04:48:05;100834.28;;;9.47;100.00
43770;BME280;6597;52.218;9.882;2023-02-17T04:50:32;100838.72;;;9.45;100.00
43770;BME280;6597;52.218;9.882;2023-02-17T04:52:58;100827.38;;;9.45;100.00
43770;BME280;6597;52.218;9.882;2023-02-17T04:55:25;100809.09;;;9.42;100.00
43770;BME280;6597;52.218;9.882;2023-02-17T04:57:51;100797.84;;;9.38;100.00
43770;BME280;6597;52.218;9.882;2023-02-17T05:00:18;100804.03;;;9.35;100.00
43770;BME280;6597;52.218;9.882;2023-02-17T05:02:45;100794.47;;;9.34;100.00
43770;BME280;6597;52.218;9.882;2023-02-17T05:05:13;100802.38;;;9.33;100.00
43770;BME280;6597;52.218;9.882;2023-02-17T05:07:40;100801.56;;;9.31;100.00
43770;BME280;6597;52.218;9.882;2023-02-17T05:10:08;100803.31;;;9.30;100.00
43770;BME280;6597;52.218;9.882;2023-02-17T05:12:34;100799.81;;;9.31;100.00
43770;BME280;6597;52.218;9.882;2023-02-17T05:15:03;100795.47;;;9.30;100.00
43770;BME280;6597;52.218;9.882;2023-02-17T05:17:29;100791.91;;;9.33;100.00
43770;BME280;6597;52.218;9.882;2023-02-17T05:19:56;100791.03;;;9.32;100.00
43770;BME280;6597;52.218;9.882;2023-02-17T05:22:24;100782.31;;;9.32;100.00
43770;BME280;6597;52.218;9.882;2023-02-17T05:24:51;100775.38;;;9.31;100.00
43770;BME280;6597;52.218;9.882;2023-02-17T05:27:18;100770.13;;;9.31;100.00
43770;BME280;6597;52.218;9.882;2023-02-17T05:29:45;100764.69;;;9.37;100.00
43770;BME280;6597;52.218;9.882;2023-02-17T05:32:11;100759.31;;;9.43;100.00
43770;BME280;6597;52.218;9.882;2023-02-17T05:34:38;100750.44;;;9.47;100.00
43770;BME280;6597;52.218;9.882;2023-02-17T05:37:04;100748.63;;;9.49;100.00
43770;BME280;6597;52.218;9.882;2023-02-17T05:39:32;100744.16;;;9.53;100.00
43770;BME280;6597;52.218;9.882;2023-02-17T05:41:59;100746.38;;;9.65;100.00
43770;BME280;6597;52.218;9.882;2023-02-17T05:44:26;100749.66;;;9.72;100.00
43770;BME280;6597;52.218;9.882;2023-02-17T05:46:52;100748.63;;;9.77;100.00
43770;BME280;6597;52.218;9.882;2023-02-17T05:49:19;100745.81;;;9.83;100.00
43770;BME280;6597;52.218;9.882;2023-02-17T05:51:45;100738.69;;;9.87;100.00
43770;BME280;6597;52.218;9.882;2023-02-17T05:54:12;100738.50;;;9.93;100.00
43770;BME280;6597;52.218;9.882;2023-02-17T05:56:40;100735.72;;;9.97;100.00
43770;BME280;6597;52.218;9.882;2023-02-17T05:59:06;100739.16;;;9.99;100.00
43770;BME280;6597;52.218;9.882;2023-02-17T06:01:33;100740.81;;;10.02;100.00
43770;BME280;6597;52.218;9.882;2023-02-17T06:04:00;100730.16;;;10.07;100.00
43770;BME280;6597;52.218;9.882;2023-02-17T06:06:26;100727.41;;;10.11;100.00
43770;BME280;6597;52.218;9.882;2023-02-17T06:08:53;100718.56;;;10.14;100.00
43770;BME280;6597;52.218;9.882;2023-02-17T06:11:19;100718.53;;;10.15;100.00
43770;BME280;6597;52.218;9.882;2023-02-17T06:13:47;100716.75;;;10.16;100.00
43770;BME280;6597;52.218;9.882;2023-02-17T06:16:14;100718.41;;;10.18;100.00
43770;BME280;6597;52.218;9.882;2023-02-17T06:18:40;100718.28;;;10.23;100.00
43770;BME280;6597;52.218;9.882;2023-02-17T06:21:07;100723.44;;;10.26;100.00
43770;BME280;6597;52.218;9.882;2023-02-17T06:23:34;100726.91;;;10.26;100.00
43770;BME280;6597;52.218;9.882;2023-02-17T06:26:00;100718.13;;;10.27;100.00
43770;BME280;6597;52.218;9.882;2023-02-17T06:28:27;100716.31;;;10.29;100.00
43770;BME280;6597;52.218;9.882;2023-02-17T06:30:55;100727.56;;;10.33;99.68
43770;BME280;6597;52.218;9.882;2023-02-17T06:33:21;100734.34;;;10.39;99.18
43770;BME280;6597;52.218;9.882;2023-02-17T06:35:48;100737.81;;;10.41;99.44
43770;BME280;6597;52.218;9.882;2023-02-17T06:38:15;100743.00;;;10.42;99.13
43770;BME280;6597;52.218;9.882;2023-02-17T06:40:42;100728.06;;;10.44;98.91
43770;BME280;6597;52.218;9.882;2023-02-17T06:43:09;100722.91;;;10.41;98.43
43770;BME280;6597;52.218;9.882;2023-02-17T06:45:36;100705.34;;;10.43;97.92
43770;BME280;6597;52.218;9.882;2023-02-17T06:48:04;100697.38;;;10.46;97.60
43770;BME280;6597;52.218;9.882;2023-02-17T06:50:31;100694.69;;;10.48;96.91
43770;BME280;6597;52.218;9.882;2023-02-17T06:52:57;100692.13;;;10.46;97.45
43770;BME280;6597;52.218;9.882;2023-02-17T06:55:24;100688.47;;;10.50;97.13
43770;BME280;6597;52.218;9.882;2023-02-17T06:57:50;100699.75;;;10.52;97.30
43770;BME280;6597;52.218;9.882;2023-02-17T07:00:18;100694.47;;;10.54;96.96
43770;BME280;6597;52.218;9.882;2023-02-17T07:02:45;100695.59;;;10.47;97.40
43770;BME280;6597;52.218;9.882;2023-02-17T07:05:13;100678.03;;;10.49;96.50
43770;BME280;6597;52.218;9.882;2023-02-17T07:07:39;100689.03;;;10.58;96.07
43770;BME280;6597;52.218;9.882;2023-02-17T07:10:07;100695.09;;;10.60;95.54
43770;BME280;6597;52.218;9.882;2023-02-17T07:12:33;100702.78;;;10.65;95.09
43770;BME280;6597;52.218;9.882;2023-02-17T07:15:00;100713.19;;;10.68;94.89
43770;BME280;6597;52.218;9.882;2023-02-17T07:17:26;100714.94;;;10.68;94.97
43770;BME280;6597;52.218;9.882;2023-02-17T07:19:53;100719.22;;;10.70;93.93
43770;BME280;6597;52.218;9.882;2023-02-17T07:22:21;100701.56;;;10.75;93.74
43770;BME280;6597;52.218;9.882;2023-02-17T07:24:49;100705.00;;;10.77;93.67
43770;BME280;6597;52.218;9.882;2023-02-17T07:27:16;100705.78;;;10.79;93.74
43770;BME280;6597;52.218;9.882;2023-02-17T07:29:42;100699.56;;;10.82;93.32
43770;BME280;6597;52.218;9.882;2023-02-17T07:32:09;100709.97;;;10.85;93.27
43770;BME280;6597;52.218;9.882;2023-02-17T07:34:36;100711.78;;;10.83;92.97
43770;BME280;6597;52.218;9.882;2023-02-17T07:37:02;100719.50;;;10.87;93.01
43770;BME280;6597;52.218;9.882;2023-02-17T07:39:30;100696.81;;;10.85;93.18
43770;BME280;6597;52.218;9.882;2023-02-17T07:41:57;100673.31;;;10.82;93.48
43770;BME280;6597;52.218;9.882;2023-02-17T07:44:26;100659.16;;;10.86;93.29
43770;BME280;6597;52.218;9.882;2023-02-17T07:46:53;100661.66;;;10.89;93.06
43770;BME280;6597;52.218;9.882;2023-02-17T07:49:19;100667.69;;;10.91;93.05
43770;BME280;6597;52.218;9.882;2023-02-17T07:51:46;100660.75;;;10.90;92.96
43770;BME280;6597;52.218;9.882;2023-02-17T07:54:13;100647.66;;;10.88;93.45
43770;BME280;6597;52.218;9.882;2023-02-17T07:56:41;100638.06;;;10.87;93.22
43770;BME280;6597;52.218;9.882;2023-02-17T07:59:08;100653.66;;;10.92;93.12
43770;BME280;6597;52.218;9.882;2023-02-17T08:01:37;100626.47;;;10.93;92.96
43770;BME280;6597;52.218;9.882;2023-02-17T08:04:04;100616.41;;;10.82;93.21
43770;BME280;6597;52.218;9.882;2023-02-17T08:06:31;100640.41;;;10.95;93.17
43770;BME280;6597;52.218;9.882;2023-02-17T08:08:57;100634.13;;;10.99;93.25
43770;BME280;6597;52.218;9.882;2023-02-17T08:11:43;100637.78;;;10.95;93.44
43770;BME280;6597;52.218;9.882;2023-02-17T08:14:29;100629.72;;;11.00;93.46
43770;BME280;6597;52.218;9.882;2023-02-17T08:16:57;100634.19;;;10.98;93.56
43770;BME280;6597;52.218;9.882;2023-02-17T08:19:24;100632.28;;;11.01;94.33
43770;BME280;6597;52.218;9.882;2023-02-17T08:21:51;100627.69;;;11.08;93.87
43770;BME280;6597;52.218;9.882;2023-02-17T08:24:19;100635.50;;;11.09;93.87
43770;BME280;6597;52.218;9.882;2023-02-17T08:26:47;100631.09;;;11.10;93.56
43770;BME280;6597;52.218;9.882;2023-02-17T08:29:14;100624.94;;;11.11;93.32
43770;BME280;6597;52.218;9.882;2023-02-17T08:31:41;100623.16;;;11.11;94.01
43770;BME280;6597;52.218;9.882;2023-02-17T08:34:09;100643.31;;;11.11;94.78
43770;BME280;6597;52.218;9.882;2023-02-17T08:36:36;100624.81;;;11.14;94.47
43770;BME280;6597;52.218;9.882;2023-02-17T08:39:04;100624.13;;;11.09;94.82
43770;BME280;6597;52.218;9.882;2023-02-17T08:41:32;100624.94;;;11.11;94.95
43770;BME280;6597;52.218;9.882;2023-02-17T08:44:02;100618.88;;;11.09;95.35
43770;BME280;6597;52.218;9.882;2023-02-17T08:46:29;100617.91;;;11.11;95.50
43770;BME280;6597;52.218;9.882;2023-02-17T08:48:56;100595.09;;;11.12;95.45
43770;BME280;6597;52.218;9.882;2023-02-17T08:51:23;100599.50;;;11.11;95.80
43770;BME280;6597;52.218;9.882;2023-02-17T08:53:52;100599.38;;;11.14;95.89
43770;BME280;6597;52.218;9.882;2023-02-17T08:56:19;100604.69;;;11.13;96.13
43770;BME280;6597;52.218;9.882;2023-02-17T08:58:46;100589.72;;;11.15;95.99
43770;BME280;6597;52.218;9.882;2023-02-17T09:01:14;100588.81;;;11.16;96.85
43770;BME280;6597;52.218;9.882;2023-02-17T09:03:43;100590.53;;;11.17;96.79
43770;BME280;6597;52.218;9.882;2023-02-17T09:06:10;100587.91;;;11.17;96.68
43770;BME280;6597;52.218;9.882;2023-02-17T09:08:37;100592.09;;;11.21;96.86
43770;BME280;6597;52.218;9.882;2023-02-17T09:11:05;100583.38;;;11.20;97.14
43770;BME280;6597;52.218;9.882;2023-02-17T09:13:32;100589.47;;;11.21;97.45
43770;BME280;6597;52.218;9.882;2023-02-17T09:15:58;100577.13;;;11.23;98.14
43770;BME280;6597;52.218;9.882;2023-02-17T09:18:26;100575.28;;;11.25;97.83
43770;BME280;6597;52.218;9.882;2023-02-17T09:20:53;100577.72;;;11.30;98.24
43770;BME280;6597;52.218;9.882;2023-02-17T09:23:19;100575.28;;;11.25;98.17
43770;BME280;6597;52.218;9.882;2023-02-17T09:25:46;100576.22;;;11.24;98.51
43770;BME280;6597;52.218;9.882;2023-02-17T09:28:12;100579.63;;;11.26;98.74
43770;BME280;6597;52.218;9.882;2023-02-17T09:30:39;100576.03;;;11.29;99.06
43770;BME280;6597;52.218;9.882;2023-02-17T09:33:06;100581.22;;;11.30;99.09
43770;BME280;6597;52.218;9.882;2023-02-17T09:35:35;100597.47;;;11.40;98.62
43770;BME280;6597;52.218;9.882;2023-02-17T09:38:02;100586.22;;;11.36;99.05
43770;BME280;6597;52.218;9.882;2023-02-17T09:40:37;100593.16;;;11.39;99.11
43770;BME280;6597;52.218;9.882;2023-02-17T09:43:04;100591.31;;;11.41;99.22
43770;BME280;6597;52.218;9.882;2023-02-17T09:45:33;100593.81;;;11.44;99.21
43770;BME280;6597;52.218;9.882;2023-02-17T09:48:05;100597.16;;;11.47;98.97
43770;BME280;6597;52.218;9.882;2023-02-17T09:50:41;100584.81;;;11.49;99.63
43770;BME280;6597;52.218;9.882;2023-02-17T09:53:16;100591.06;;;11.47;99.47
43770;BME280;6597;52.218;9.882;2023-02-17T09:55:48;100582.06;;;11.52;100.00
43770;BME280;6597;52.218;9.882;2023-02-17T09:58:19;100586.72;;;11.46;99.98
43770;BME280;6597;52.218;9.882;2023-02-17T10:00:50;100590.31;;;11.43;100.00
43770;BME280;6597;52.218;9.882;2023-02-17T10:03:23;100588.69;;;11.41;100.00
43770;BME280;6597;52.218;9.882;2023-02-17T10:06:01;100593.56;;;11.50;100.00
43770;BME280;6597;52.218;9.882;2023-02-17T10:08:33;100591.13;;;11.45;100.00
43770;BME280;6597;52.218;9.882;2023-02-17T10:11:09;100576.78;;;11.52;100.00
43770;BME280;6597;52.218;9.882;2023-02-17T10:13:39;100569.22;;;11.45;100.00
43770;BME280;6597;52.218;9.882;2023-02-17T10:16:11;100572.53;;;11.50;100.00
43770;BME280;6597;52.218;9.882;2023-02-17T10:18:44;100569.75;;;11.53;100.00
43770;BME280;6597;52.218;9.882;2023-02-17T10:21:17;100576.00;;;11.50;100.00
43770;BME280;6597;52.218;9.882;2023-02-17T10:23:46;100581.25;;;11.50;100.00
43770;BME280;6597;52.218;9.882;2023-02-17T10:26:21;100555.81;;;11.51;100.00
43770;BME280;6597;52.218;9.882;2023-02-17T10:28:51;100555.91;;;11.49;100.00
43770;BME280;6597;52.218;9.882;2023-02-17T10:31:25;100540.91;;;11.51;100.00
43770;BME280;6597;52.218;9.882;2023-02-17T10:34:00;100542.63;;;11.52;100.00
43770;BME280;6597;52.218;9.882;2023-02-17T10:36:37;100547.53;;;11.60;100.00
43770;BME280;6597;52.218;9.882;2023-02-17T10:39:12;100554.38;;;11.64;100.00
43770;BME280;6597;52.218;9.882;2023-02-17T10:41:40;100534.81;;;11.71;100.00
43770;BME280;6597;52.218;9.882;2023-02-17T10:44:13;100557.44;;;11.75;100.00
43770;BME280;6597;52.218;9.882;2023-02-17T10:46:42;100536.16;;;11.81;100.00
43770;BME280;6597;52.218;9.882;2023-02-17T10:49:15;100543.97;;;11.83;100.00
43770;BME280;6597;52.218;9.882;2023-02-17T10:51:45;100552.66;;;11.85;100.00
43770;BME280;6597;52.218;9.882;2023-02-17T10:54:17;100538.56;;;11.86;100.00
43770;BME280;6597;52.218;9.882;2023-02-17T10:56:50;100547.25;;;11.88;100.00
43770;BME280;6597;52.218;9.882;2023-02-17T10:59:22;100540.13;;;11.90;100.00
43770;BME280;6597;52.218;9.882;2023-02-17T11:01:49;100544.22;;;11.97;99.79
43770;BME280;6597;52.218;9.882;2023-02-17T11:04:16;100535.16;;;12.04;100.00
43770;BME280;6597;52.218;9.882;2023-02-17T11:06:47;100516.66;;;12.06;98.89
43770;BME280;6597;52.218;9.882;2023-02-17T11:09:18;100508.06;;;12.21;98.09
43770;BME280;6597;52.218;9.882;2023-02-17T11:11:50;100508.34;;;12.34;97.24
43770;BME280;6597;52.218;9.882;2023-02-17T11:14:19;100513.06;;;12.46;95.15
43770;BME280;6597;52.218;9.882;2023-02-17T11:16:51;100499.59;;;12.52;93.82
43770;BME280;6597;52.218;9.882;2023-02-17T11:19:21;100492.19;;;12.60;93.82
43770;BME280;6597;52.218;9.882;2023-02-17T11:21:51;100475.53;;;12.60;93.35
43770;BME280;6597;52.218;9.882;2023-02-17T11:24:18;100480.41;;;12.67;92.71
43770;BME280;6597;52.218;9.882;2023-02-17T11:26:55;100477.84;;;12.66;92.68
43770;BME280;6597;52.218;9.882;2023-02-17T11:29:22;100472.66;;;12.64;91.40
43770;BME280;6597;52.218;9.882;2023-02-17T11:31:53;100476.75;;;12.71;90.55
43770;BME280;6597;52.218;9.882;2023-02-17T11:34:22;100469.06;;;12.84;90.11
43770;BME280;6597;52.218;9.882;2023-02-17T11:36:57;100460.72;;;12.93;88.99
43770;BME280;6597;52.218;9.882;2023-02-17T11:39:24;100475.94;;;13.05;87.99
43770;BME280;6597;52.218;9.882;2023-02-17T11:41:51;100473.84;;;13.12;86.18
43770;BME280;6597;52.218;9.882;2023-02-17T11:44:24;100477.75;;;13.22;85.17
43770;BME280;6597;52.218;9.882;2023-02-17T11:46:59;100467.53;;;13.33;85.11
43770;BME280;6597;52.218;9.882;2023-02-17T11:49:44;100472.72;;;13.35;84.28
43770;BME280;6597;52.218;9.882;2023-02-17T11:52:28;100470.31;;;13.48;83.82
43770;BME280;6597;52.218;9.882;2023-02-17T11:55:13;100461.88;;;13.41;82.44
43770;BME280;6597;52.218;9.882;2023-02-17T11:57:44;100452.69;;;13.48;83.08
43770;BME280;6597;52.218;9.882;2023-02-17T12:00:18;100452.38;;;13.54;82.21
43770;BME280;6597;52.218;9.882;2023-02-17T12:03:15;100460.88;;;13.59;82.36
43770;BME280;6597;52.218;9.882;2023-02-17T12:05:57;100456.88;;;13.69;82.21
43770;BME280;6597;52.218;9.882;2023-02-17T12:08:34;100452.59;;;13.67;81.36
43770;BME280;6597;52.218;9.882;2023-02-17T12:11:08;100441.25;;;13.65;81.51
43770;BME280;6597;52.218;9.882;2023-02-17T12:13:51;100432.09;;;13.72;80.96
43770;BME280;6597;52.218;9.882;2023-02-17T12:16:28;100424.19;;;13.72;81.20
43770;BME280;6597;52.218;9.882;2023-02-17T12:19:04;100429.78;;;13.66;80.59
43770;BME280;6597;52.218;9.882;2023-02-17T12:21:45;100440.09;;;13.70;81.22
43770;BME280;6597;52.218;9.882;2023-02-17T12:24:39;100427.00;;;13.69;81.56
43770;BME280;6597;52.218;9.882;2023-02-17T12:27:20;100429.13;;;13.78;81.17
43770;BME280;6597;52.218;9.882;2023-02-17T12:30:02;100429.97;;;13.79;80.96
43770;BME280;6597;52.218;9.882;2023-02-17T12:32:42;100420.13;;;13.82;79.49
43770;BME280;6597;52.218;9.882;2023-02-17T12:35:15;100430.59;;;13.84;79.94
43770;BME280;6597;52.218;9.882;2023-02-17T12:37:50;100403.09;;;13.88;79.55
43770;BME280;6597;52.218;9.882;2023-02-17T12:40:31;100439.22;;;14.03;78.64
43770;BME280;6597;52.218;9.882;2023-02-17T12:43:06;100453.69;;;14.27;78.00
43770;BME280;6597;52.218;9.882;2023-02-17T12:45:37;100460.28;;;14.36;76.50
43770;BME280;6597;52.218;9.882;2023-02-17T12:48:10;100461.72;;;14.10;77.91
43770;BME280;6597;52.218;9.882;2023-02-17T12:50:44;100465.72;;;13.84;79.51
43770;BME280;6597;52.218;9.882;2023-02-17T12:53:20;100476.25;;;13.68;79.29
43770;BME280;6597;52.218;9.882;2023-02-17T12:55:53;100474.88;;;13.44;80.48
43770;BME280;6597;52.218;9.882;2023-02-17T12:58:23;100481.25;;;13.40;80.80
43770;BME280;6597;52.218;9.882;2023-02-17T13:00:54;100476.75;;;13.25;81.99
43770;BME280;6597;52.218;9.882;2023-02-17T13:03:23;100468.56;;;13.12;81.86
43770;BME280;6597;52.218;9.882;2023-02-17T13:05:57;100478.50;;;13.07;82.07
43770;BME280;6597;52.218;9.882;2023-02-17T13:08:29;100478.00;;;12.99;83.00
43770;BME280;6597;52.218;9.882;2023-02-17T13:11:01;100473.53;;;13.01;82.85
43770;BME280;6597;52.218;9.882;2023-02-17T13:13:29;100478.22;;;12.94;82.65